createdAt,value
2023-02-14T00:02:22.112Z,90.05
2023-02-14T00:04:48.593Z,90.27
2023-02-14T00:07:15.221Z,89.98
2023-02-14T00:09:41.729Z,90.13
2023-02-14T00:12:08.149Z,89.96
2023-02-14T00:14:53.470Z,90.28
2023-02-14T00:17:19.913Z,90.02
2023-02-14T00:19:46.420Z,90.13
2023-02-14T00:22:13.068Z,90.59
2023-02-14T00:24:39.528Z,90.44
2023-02-14T00:27:06.076Z,90.60
2023-02-14T00:29:33.678Z,90.56
2023-02-14T00:32:01.040Z,90.70
2023-02-14T00:34:28.134Z,90.82
2023-02-14T00:36:54.711Z,90.83
2023-02-14T00:39:21.187Z,90.47
2023-02-14T00:41:47.869Z,90.67
2023-02-14T00:44:14.553Z,90.86
2023-02-14T00:46:41.576Z,90.50
2023-02-14T00:49:08.297Z,90.42
2023-02-14T00:51:35.102Z,90.59
2023-02-14T00:54:01.926Z,90.84
2023-02-14T00:56:28.395Z,90.83
2023-02-14T00:58:55.080Z,90.59
2023-02-14T01:01:21.619Z,90.34
2023-02-14T01:03:48.183Z,90.47
2023-02-14T01:06:15.129Z,90.51
2023-02-14T01:08:41.793Z,90.76
2023-02-14T01:11:09.125Z,90.77
2023-02-14T01:13:35.586Z,90.71
2023-02-14T01:16:07.540Z,91.46
2023-02-14T01:18:35.162Z,91.08
2023-02-14T01:21:13.896Z,91.33
2023-02-14T01:23:41.142Z,91.34
2023-02-14T01:26:08.401Z,91.32
2023-02-14T01:28:34.974Z,91.16
2023-02-14T01:31:07.837Z,91.49
2023-02-14T01:33:34.391Z,91.11
2023-02-14T01:36:00.976Z,91.61
2023-02-14T01:38:27.392Z,91.43
2023-02-14T01:40:53.820Z,91.58
2023-02-14T01:43:20.278Z,92.18
2023-02-14T01:45:46.961Z,91.97
2023-02-14T01:48:15.277Z,92.12
2023-02-14T01:50:45.452Z,92.18
2023-02-14T01:53:24.682Z,92.32
2023-02-14T01:55:57.043Z,92.48
2023-02-14T01:58:27.866Z,92.52
2023-02-14T02:00:57.051Z,92.50
2023-02-14T02:03:36.569Z,92.63
2023-02-14T02:06:28.009Z,92.59
2023-02-14T02:08:59.420Z,92.45
2023-02-14T02:11:26.910Z,92.68
2023-02-14T02:13:53.658Z,92.41
2023-02-14T02:16:50.192Z,92.68
2023-02-14T02:19:35.169Z,93.02
2023-02-14T02:22:31.036Z,92.68
2023-02-14T02:25:10.419Z,93.03
2023-02-14T02:27:52.082Z,93.03
2023-02-14T02:30:30.772Z,93.10
2023-02-14T02:33:09.077Z,93.02
2023-02-14T02:35:57.505Z,93.52
2023-02-14T02:38:33.018Z,93.43
2023-02-14T02:41:21.848Z,93.22
2023-02-14T02:44:03.783Z,93.63
2023-02-14T02:46:48.172Z,93.55
2023-02-14T02:49:46.919Z,94.06
2023-02-14T02:52:42.474Z,93.89
2023-02-14T02:55:24.322Z,94.16
2023-02-14T02:57:53.479Z,94.03
2023-02-14T03:00:22.160Z,94.46
2023-02-14T03:03:11.558Z,94.12
2023-02-14T03:05:38.444Z,94.49
2023-02-14T03:08:05.730Z,94.28
2023-02-14T03:10:36.622Z,94.08
2023-02-14T03:13:12.299Z,94.55
2023-02-14T03:15:44.132Z,94.41
2023-02-14T03:18:47.674Z,94.88
2023-02-14T03:21:20.194Z,95.13
2023-02-14T03:23:59.499Z,95.05
2023-02-14T03:26:33.745Z,95.17
2023-02-14T03:29:06.266Z,94.78
2023-02-14T03:31:58.700Z,95.05
2023-02-14T03:34:40.590Z,94.94
2023-02-14T03:37:34.662Z,95.13
2023-02-14T03:40:13.390Z,95.16
2023-02-14T03:42:49.904Z,95.36
2023-02-14T03:45:27.765Z,95.30
2023-02-14T03:48:00.423Z,95.26
2023-02-14T03:50:28.867Z,95.49
2023-02-14T03:52:56.956Z,95.51
2023-02-14T03:55:34.602Z,95.48
2023-02-14T03:58:12.333Z,95.34
2023-02-14T04:00:41.841Z,95.25
2023-02-14T04:03:14.988Z,95.75
2023-02-14T04:05:43.854Z,95.81
2023-02-14T04:08:12.011Z,95.79
2023-02-14T04:10:40.074Z,95.74
2023-02-14T04:13:06.570Z,95.81
2023-02-14T04:15:33.051Z,95.65
2023-02-14T04:18:18.089Z,95.57
2023-02-14T04:20:44.549Z,95.75
2023-02-14T04:23:11.080Z,95.95
2023-02-14T04:25:40.005Z,95.98
2023-02-14T04:28:06.444Z,95.89
2023-02-14T04:30:32.926Z,96.07
2023-02-14T04:32:59.309Z,96.14
2023-02-14T04:35:25.756Z,95.66
2023-02-14T04:37:52.780Z,96.06
2023-02-14T04:40:19.346Z,96.23
2023-02-14T04:42:46.349Z,96.28
2023-02-14T04:45:13.193Z,96.28
2023-02-14T04:47:39.649Z,96.05
2023-02-14T04:50:06.743Z,96.03
2023-02-14T04:52:33.224Z,96.02
2023-02-14T04:54:59.796Z,96.23
2023-02-14T04:57:26.249Z,95.56
2023-02-14T04:59:52.698Z,95.69
2023-02-14T05:02:19.168Z,95.48
2023-02-14T05:04:45.653Z,95.39
2023-02-14T05:07:12.105Z,95.07
2023-02-14T05:09:38.572Z,95.37
2023-02-14T05:12:05.177Z,95.29
2023-02-14T05:14:31.690Z,95.56
2023-02-14T05:16:58.189Z,95.74
2023-02-14T05:19:25.107Z,95.66
2023-02-14T05:21:51.645Z,95.66
2023-02-14T05:24:18.138Z,95.47
2023-02-14T05:26:44.541Z,95.53
2023-02-14T05:29:11.047Z,95.48
2023-02-14T05:31:37.673Z,95.60
2023-02-14T05:34:04.224Z,95.58
2023-02-14T05:36:30.853Z,95.30
2023-02-14T05:38:57.275Z,95.40
2023-02-14T05:41:23.670Z,95.35
2023-02-14T05:43:50.125Z,95.48
2023-02-14T05:46:16.577Z,95.67
2023-02-14T05:48:43.049Z,95.98
2023-02-14T05:51:10.670Z,95.51
2023-02-14T05:53:37.492Z,95.76
2023-02-14T05:56:04.776Z,95.96
2023-02-14T05:58:32.226Z,95.88
2023-02-14T06:01:00.287Z,95.74
2023-02-14T06:03:27.580Z,95.42
2023-02-14T06:05:53.979Z,96.00
2023-02-14T06:08:20.450Z,95.60
2023-02-14T06:10:47.106Z,95.96
2023-02-14T06:13:13.627Z,96.04
2023-02-14T06:15:40.044Z,95.74
2023-02-14T06:18:06.899Z,96.03
2023-02-14T06:20:33.376Z,95.89
2023-02-14T06:22:59.836Z,95.92
2023-02-14T06:25:27.214Z,95.91
2023-02-14T06:27:57.675Z,95.80
2023-02-14T06:30:24.517Z,95.98
2023-02-14T06:32:51.760Z,95.91
2023-02-14T06:35:18.443Z,95.85
2023-02-14T06:37:45.386Z,95.41
2023-02-14T06:40:13.265Z,95.68
2023-02-14T06:42:40.074Z,96.03
2023-02-14T06:45:06.998Z,96.03
2023-02-14T06:47:34.952Z,95.92
2023-02-14T06:50:01.700Z,96.11
2023-02-14T06:52:28.115Z,95.90
2023-02-14T06:54:54.547Z,96.60
2023-02-14T06:57:20.951Z,96.30
2023-02-14T06:59:47.404Z,96.46
2023-02-14T07:02:13.976Z,96.15
2023-02-14T07:04:40.436Z,96.30
2023-02-14T07:07:07.038Z,97.08
2023-02-14T07:09:33.492Z,96.84
2023-02-14T07:12:00.003Z,96.56
2023-02-14T07:14:26.569Z,96.77
2023-02-14T07:16:53.020Z,96.93
2023-02-14T07:19:19.414Z,97.40
2023-02-14T07:21:45.819Z,97.03
2023-02-14T07:24:12.272Z,97.15
2023-02-14T07:26:38.670Z,96.91
2023-02-14T07:29:05.238Z,97.22
2023-02-14T07:31:31.864Z,97.35
2023-02-14T07:34:00.789Z,97.35
2023-02-14T07:36:27.731Z,97.35
2023-02-14T07:38:56.470Z,97.67
2023-02-14T07:41:23.497Z,97.70
2023-02-14T07:43:49.946Z,98.05
2023-02-14T07:46:17.544Z,98.12
2023-02-14T07:48:44.206Z,98.08
2023-02-14T07:51:11.229Z,98.29
2023-02-14T07:53:37.776Z,98.28
2023-02-14T07:56:04.329Z,98.41
2023-02-14T07:58:30.781Z,98.26
2023-02-14T08:00:57.430Z,98.68
2023-02-14T08:03:24.163Z,98.63
2023-02-14T08:06:00.012Z,98.97
2023-02-14T08:08:28.794Z,99.00
2023-02-14T08:10:55.802Z,98.94
2023-02-14T08:13:22.642Z,98.96
2023-02-14T08:16:04.418Z,99.12
2023-02-14T08:18:35.048Z,99.34
2023-02-14T08:21:01.858Z,99.19
2023-02-14T08:23:28.753Z,99.50
2023-02-14T08:25:55.512Z,99.68
2023-02-14T08:28:22.143Z,99.79
2023-02-14T08:30:50.059Z,99.73
2023-02-14T08:33:16.689Z,100.00
2023-02-14T08:35:43.227Z,100.00
2023-02-14T08:38:09.866Z,99.84
2023-02-14T08:40:37.239Z,100.00
2023-02-14T08:43:08.020Z,100.00
2023-02-14T08:45:34.796Z,100.00
2023-02-14T08:48:12.113Z,100.00
2023-02-14T08:50:39.647Z,100.00
2023-02-14T08:53:08.982Z,100.00
2023-02-14T08:55:36.158Z,100.00
2023-02-14T08:58:03.560Z,100.00
2023-02-14T09:00:30.812Z,100.00
2023-02-14T09:02:57.358Z,100.00
2023-02-14T09:05:23.959Z,100.00
2023-02-14T09:07:51.391Z,100.00
2023-02-14T09:10:21.451Z,100.00
2023-02-14T09:12:48.210Z,100.00
2023-02-14T09:15:14.697Z,100.00
2023-02-14T09:17:41.332Z,100.00
2023-02-14T09:20:10.047Z,100.00
2023-02-14T09:22:36.712Z,100.00
2023-02-14T09:25:04.334Z,100.00
2023-02-14T09:27:31.054Z,100.00
2023-02-14T09:29:57.461Z,100.00
2023-02-14T09:32:25.218Z,100.00
2023-02-14T09:34:51.931Z,100.00
2023-02-14T09:37:19.491Z,100.00
2023-02-14T09:39:46.144Z,100.00
2023-02-14T09:42:36.820Z,100.00
2023-02-14T09:45:16.830Z,100.00
2023-02-14T09:47:56.533Z,100.00
2023-02-14T09:50:54.744Z,100.00
2023-02-14T09:53:33.755Z,100.00
2023-02-14T09:56:17.562Z,100.00
2023-02-14T09:58:52.424Z,100.00
2023-02-14T10:01:25.839Z,100.00
2023-02-14T10:04:17.159Z,100.00
2023-02-14T10:07:39.240Z,100.00
2023-02-14T10:10:39.686Z,100.00
2023-02-14T10:13:16.945Z,100.00
2023-02-14T10:15:46.867Z,100.00
2023-02-14T10:18:25.274Z,100.00
2023-02-14T10:20:56.439Z,100.00
2023-02-14T10:23:30.852Z,100.00
2023-02-14T10:26:02.976Z,100.00
2023-02-14T10:28:37.200Z,100.00
2023-02-14T10:31:26.927Z,100.00
2023-02-14T10:34:03.151Z,100.00
2023-02-14T10:36:39.967Z,100.00
2023-02-14T10:39:56.090Z,100.00
2023-02-14T10:42:44.174Z,100.00
2023-02-14T10:45:22.926Z,100.00
2023-02-14T10:48:09.073Z,99.78
2023-02-14T10:50:46.540Z,99.26
2023-02-14T10:53:30.762Z,98.84
2023-02-14T10:56:06.378Z,98.73
2023-02-14T10:58:37.788Z,97.89
2023-02-14T11:01:13.233Z,97.45
2023-02-14T11:03:48.679Z,96.65
2023-02-14T11:06:16.106Z,96.39
2023-02-14T11:08:42.605Z,95.72
2023-02-14T11:11:37.751Z,95.42
2023-02-14T11:14:38.027Z,94.90
2023-02-14T11:17:35.911Z,94.75
2023-02-14T11:20:22.545Z,94.71
2023-02-14T11:22:50.076Z,94.40
2023-02-14T11:25:28.932Z,93.88
2023-02-14T11:28:04.840Z,92.79
2023-02-14T11:30:41.586Z,92.62
2023-02-14T11:33:22.277Z,91.92
2023-02-14T11:35:51.976Z,91.65
2023-02-14T11:38:30.522Z,91.67
2023-02-14T11:40:59.804Z,91.32
2023-02-14T11:43:32.970Z,89.80
2023-02-14T11:46:12.809Z,90.24
2023-02-14T11:48:39.804Z,89.53
2023-02-14T11:51:15.780Z,89.08
2023-02-14T11:53:52.375Z,87.25
2023-02-14T11:56:21.527Z,86.57
2023-02-14T11:59:00.045Z,86.89
2023-02-14T12:01:33.762Z,86.91
2023-02-14T12:04:22.323Z,86.65
2023-02-14T12:06:48.992Z,86.22
2023-02-14T12:09:24.627Z,85.85
2023-02-14T12:12:04.512Z,85.78
2023-02-14T12:14:35.778Z,85.23
2023-02-14T12:17:11.469Z,84.86
2023-02-14T12:19:55.820Z,84.48
2023-02-14T12:22:28.523Z,84.18
2023-02-14T12:25:18.700Z,84.08
2023-02-14T12:27:56.870Z,83.45
2023-02-14T12:30:27.016Z,83.33
2023-02-14T12:32:56.290Z,83.44
2023-02-14T12:35:50.205Z,82.65
2023-02-14T12:38:43.969Z,82.16
2023-02-14T12:41:19.135Z,82.33
2023-02-14T12:43:50.639Z,81.79
2023-02-14T12:46:35.638Z,81.37
2023-02-14T12:49:17.248Z,81.08
2023-02-14T12:51:58.978Z,80.46
2023-02-14T12:55:22.861Z,80.01
2023-02-14T12:57:57.755Z,79.36
2023-02-14T13:00:46.420Z,78.73
2023-02-14T13:03:27.987Z,78.80
2023-02-14T13:06:00.552Z,77.79
2023-02-14T13:08:47.347Z,77.09
2023-02-14T13:11:16.652Z,77.32
2023-02-14T13:14:04.707Z,77.33
2023-02-14T13:16:43.021Z,77.46
2023-02-14T13:19:33.806Z,77.87
2023-02-14T13:22:01.483Z,76.94
2023-02-14T13:24:33.765Z,77.10
2023-02-14T13:27:03.301Z,76.56
2023-02-14T13:29:42.212Z,77.14
2023-02-14T13:32:14.243Z,76.80
2023-02-14T13:34:48.533Z,77.10
2023-02-14T13:37:22.029Z,76.36
2023-02-14T13:40:06.478Z,76.27
2023-02-14T13:42:48.567Z,75.97
2023-02-14T13:45:30.591Z,76.01
2023-02-14T13:48:19.009Z,75.72
2023-02-14T13:50:53.248Z,75.44
2023-02-14T13:53:29.352Z,74.84
2023-02-14T13:55:56.262Z,74.89
2023-02-14T13:58:24.329Z,74.25
2023-02-14T14:00:52.232Z,73.84
2023-02-14T14:03:27.898Z,74.09
2023-02-14T14:06:03.745Z,74.28
2023-02-14T14:08:31.384Z,73.88
2023-02-14T14:11:00.085Z,73.70
2023-02-14T14:13:41.603Z,73.71
2023-02-14T14:16:23.515Z,73.61
2023-02-14T14:18:52.037Z,73.74
2023-02-14T14:21:30.598Z,73.97
2023-02-14T14:24:15.766Z,73.58
2023-02-14T14:27:18.857Z,72.69
2023-02-14T14:29:47.986Z,72.91
2023-02-14T14:32:21.504Z,72.69
2023-02-14T14:34:53.700Z,73.39
2023-02-14T14:37:23.388Z,73.66
2023-02-14T14:39:55.681Z,73.51
2023-02-14T14:42:24.932Z,73.33
2023-02-14T14:44:57.278Z,73.13
2023-02-14T14:47:32.483Z,73.19
2023-02-14T14:50:07.820Z,73.62
2023-02-14T14:52:38.292Z,73.28
2023-02-14T14:55:07.671Z,73.38
2023-02-14T14:57:36.605Z,73.33
2023-02-14T15:00:27.325Z,73.43
2023-02-14T15:03:00.142Z,72.96
2023-02-14T15:05:38.187Z,72.94
2023-02-14T15:08:14.728Z,73.09
2023-02-14T15:10:41.611Z,73.88
2023-02-14T15:13:31.583Z,74.04
2023-02-14T15:15:58.792Z,73.93
2023-02-14T15:18:25.594Z,74.38
2023-02-14T15:20:52.871Z,74.21
2023-02-14T15:23:23.495Z,74.23
2023-02-14T15:25:51.717Z,74.68
2023-02-14T15:28:29.063Z,74.54
2023-02-14T15:30:58.272Z,74.71
2023-02-14T15:33:25.173Z,75.26
2023-02-14T15:35:52.618Z,75.31
2023-02-14T15:38:21.879Z,75.18
2023-02-14T15:40:48.716Z,75.42
2023-02-14T15:43:17.923Z,75.19
2023-02-14T15:45:51.076Z,75.55
2023-02-14T15:48:30.535Z,75.43
2023-02-14T15:50:59.792Z,76.08
2023-02-14T15:53:38.693Z,76.29
2023-02-14T15:56:11.560Z,76.36
2023-02-14T15:58:40.551Z,76.51
2023-02-14T16:01:09.226Z,76.51
2023-02-14T16:03:40.353Z,76.51
2023-02-14T16:06:07.200Z,77.15
2023-02-14T16:08:41.186Z,77.11
2023-02-14T16:11:15.834Z,76.96
2023-02-14T16:13:45.099Z,77.80
2023-02-14T16:16:13.787Z,77.88
2023-02-14T16:18:43.106Z,78.21
2023-02-14T16:21:19.361Z,78.67
2023-02-14T16:24:06.435Z,79.00
2023-02-14T16:26:42.028Z,79.26
2023-02-14T16:29:10.546Z,79.51
2023-02-14T16:32:01.223Z,79.79
2023-02-14T16:34:32.371Z,80.33
2023-02-14T16:37:06.869Z,80.48
2023-02-14T16:39:34.582Z,81.02
2023-02-14T16:42:03.387Z,81.06
2023-02-14T16:44:29.858Z,82.06
2023-02-14T16:46:56.287Z,81.99
2023-02-14T16:49:23.640Z,82.73
2023-02-14T16:51:51.740Z,83.02
2023-02-14T16:54:20.397Z,83.16
2023-02-14T16:56:52.614Z,83.28
2023-02-14T16:59:19.086Z,83.34
2023-02-14T17:01:45.970Z,84.07
2023-02-14T17:04:12.693Z,84.63
2023-02-14T17:06:43.508Z,84.82
2023-02-14T17:09:13.514Z,84.79
2023-02-14T17:11:44.602Z,85.10
2023-02-14T17:14:14.820Z,85.07
2023-02-14T17:16:42.503Z,85.74
2023-02-14T17:19:09.276Z,86.14
2023-02-14T17:21:35.785Z,85.98
2023-02-14T17:24:03.439Z,85.99
2023-02-14T17:26:30.298Z,86.30
2023-02-14T17:28:56.731Z,86.76
2023-02-14T17:31:23.246Z,87.09
2023-02-14T17:33:49.817Z,86.89
2023-02-14T17:36:16.503Z,86.96
2023-02-14T17:38:45.639Z,87.52
2023-02-14T17:41:22.320Z,87.33
2023-02-14T17:43:49.964Z,87.28
2023-02-14T17:46:18.703Z,87.68
2023-02-14T17:48:46.008Z,87.24
2023-02-14T17:51:13.704Z,86.82
2023-02-14T17:53:41.720Z,86.40
2023-02-14T17:56:12.966Z,87.27
2023-02-14T17:58:39.417Z,86.89
2023-02-14T18:01:08.388Z,86.63
2023-02-14T18:03:35.433Z,86.82
2023-02-14T18:06:02.619Z,86.76
2023-02-14T18:08:31.149Z,87.21
2023-02-14T18:10:57.658Z,87.01
2023-02-14T18:13:25.573Z,87.20
2023-02-14T18:15:53.439Z,86.59
2023-02-14T18:18:20.302Z,87.14
2023-02-14T18:20:54.899Z,87.34
2023-02-14T18:23:21.855Z,87.66
2023-02-14T18:25:57.522Z,87.55
2023-02-14T18:28:25.414Z,87.35
2023-02-14T18:30:52.725Z,87.42
2023-02-14T18:33:19.722Z,87.60
2023-02-14T18:35:46.649Z,87.74
2023-02-14T18:38:13.988Z,87.99
2023-02-14T18:40:41.416Z,88.01
2023-02-14T18:43:07.847Z,87.84
2023-02-14T18:45:38.498Z,87.99
2023-02-14T18:48:05.998Z,87.92
2023-02-14T18:50:35.946Z,88.10
2023-02-14T18:53:02.733Z,88.34
2023-02-14T18:55:29.645Z,88.09
2023-02-14T18:57:56.053Z,87.52
2023-02-14T19:00:23.199Z,87.30
2023-02-14T19:02:49.724Z,87.34
2023-02-14T19:05:16.184Z,87.48
2023-02-14T19:07:42.599Z,87.40
2023-02-14T19:10:09.948Z,87.20
2023-02-14T19:12:36.388Z,87.37
2023-02-14T19:15:03.566Z,87.57
2023-02-14T19:17:30.019Z,88.02
2023-02-14T19:19:57.100Z,87.61
2023-02-14T19:22:23.730Z,87.80
2023-02-14T19:24:52.998Z,87.72
2023-02-14T19:27:19.731Z,87.88
2023-02-14T19:29:46.125Z,87.95
2023-02-14T19:32:12.607Z,88.14
2023-02-14T19:34:39.138Z,87.65
2023-02-14T19:37:06.431Z,88.39
2023-02-14T19:39:33.015Z,88.75
2023-02-14T19:42:00.086Z,88.71
2023-02-14T19:44:28.724Z,88.29
2023-02-14T19:46:56.574Z,88.53
2023-02-14T19:49:23.295Z,88.63
2023-02-14T19:51:51.470Z,88.48
2023-02-14T19:54:19.028Z,88.50
2023-02-14T19:56:46.665Z,88.89
2023-02-14T19:59:19.715Z,89.47
2023-02-14T20:01:49.627Z,89.37
2023-02-14T20:04:28.741Z,89.19
2023-02-14T20:06:55.704Z,89.17
2023-02-14T20:09:23.547Z,88.93
2023-02-14T20:12:01.104Z,89.06
2023-02-14T20:14:35.937Z,88.93
2023-02-14T20:17:07.881Z,89.55
2023-02-14T20:19:35.818Z,89.05
2023-02-14T20:22:02.578Z,88.71
2023-02-14T20:24:31.761Z,88.72
2023-02-14T20:27:00.330Z,88.77
2023-02-14T20:29:27.699Z,89.25
2023-02-14T20:31:58.072Z,88.94
2023-02-14T20:34:24.596Z,89.02
2023-02-14T20:36:55.289Z,89.27
2023-02-14T20:39:26.384Z,89.33
2023-02-14T20:41:53.960Z,89.84
2023-02-14T20:44:21.431Z,89.66
2023-02-14T20:46:49.547Z,89.10
2023-02-14T20:49:16.116Z,88.81
2023-02-14T20:51:42.855Z,88.63
2023-02-14T20:54:09.352Z,89.29
2023-02-14T20:56:35.771Z,89.25
2023-02-14T20:59:03.290Z,89.54
2023-02-14T21:01:30.030Z,89.02
2023-02-14T21:03:56.474Z,88.77
2023-02-14T21:06:26.680Z,89.75
2023-02-14T21:08:53.460Z,89.57
2023-02-14T21:11:22.649Z,89.91
2023-02-14T21:13:49.216Z,89.16
2023-02-14T21:16:19.518Z,89.28
2023-02-14T21:18:49.141Z,89.27
2023-02-14T21:21:20.048Z,89.14
2023-02-14T21:23:49.195Z,89.71
2023-02-14T21:26:16.142Z,89.64
2023-02-14T21:28:42.554Z,89.58
2023-02-14T21:31:12.375Z,89.19
2023-02-14T21:33:39.148Z,89.43
2023-02-14T21:36:07.147Z,89.70
2023-02-14T21:38:34.287Z,89.54
2023-02-14T21:41:04.749Z,89.38
2023-02-14T21:43:35.031Z,88.90
2023-02-14T21:46:06.235Z,89.01
2023-02-14T21:48:51.207Z,89.77
2023-02-14T21:51:18.684Z,89.69
2023-02-14T21:53:46.053Z,89.14
2023-02-14T21:56:17.996Z,89.52
2023-02-14T21:58:44.563Z,89.16
2023-02-14T22:01:17.330Z,89.66
2023-02-14T22:03:44.023Z,89.41
2023-02-14T22:06:10.500Z,89.43
2023-02-14T22:08:37.005Z,89.56
2023-02-14T22:11:08.367Z,88.98
2023-02-14T22:13:35.287Z,88.88
2023-02-14T22:16:03.516Z,88.99
2023-02-14T22:18:30.268Z,88.82
2023-02-14T22:21:05.206Z,89.15
2023-02-14T22:23:35.151Z,89.50
2023-02-14T22:26:15.342Z,89.05
2023-02-14T22:28:43.953Z,89.32
2023-02-14T22:31:11.335Z,89.06
2023-02-14T22:33:38.293Z,88.98
2023-02-14T22:36:06.015Z,88.82
2023-02-14T22:38:33.551Z,89.11
2023-02-14T22:41:13.177Z,88.83
2023-02-14T22:43:40.284Z,88.84
2023-02-14T22:46:10.443Z,88.99
2023-02-14T22:48:37.687Z,89.20
2023-02-14T22:51:09.474Z,89.08
2023-02-14T22:53:36.338Z,89.05
2023-02-14T22:56:14.395Z,88.79
2023-02-14T22:58:41.343Z,88.98
2023-02-14T23:01:16.354Z,89.36
2023-02-14T23:03:43.433Z,89.41
2023-02-14T23:06:10.691Z,89.61
2023-02-14T23:08:42.113Z,89.88
2023-02-14T23:11:16.672Z,89.71
2023-02-14T23:14:01.915Z,90.24
2023-02-14T23:16:47.179Z,90.06
2023-02-14T23:19:41.339Z,90.57
2023-02-14T23:22:12.426Z,90.25
2023-02-14T23:24:39.193Z,91.12
2023-02-14T23:27:06.904Z,90.92
2023-02-14T23:29:33.584Z,91.31
2023-02-14T23:32:00.108Z,90.91
2023-02-14T23:34:28.837Z,91.25
2023-02-14T23:36:55.495Z,91.54
2023-02-14T23:39:22.845Z,91.36
2023-02-14T23:41:49.709Z,91.65
2023-02-14T23:44:21.332Z,91.04
2023-02-14T23:46:52.522Z,91.17
2023-02-14T23:49:19.701Z,91.10
2023-02-14T23:51:47.590Z,91.16
2023-02-14T23:54:15.015Z,91.09
2023-02-14T23:56:42.076Z,91.12
2023-02-14T23:59:08.909Z,91.07
